This is the latest recevied weather packets stored in our database for station/object HB9FRQ-10. If no packets are shown the sender has not sent any weather packets the latest 10 day(s).
| Time | Temp. | Humidity | Pressure | Rain* | Wind** | Luminosity | Snow |
|---|---|---|---|---|---|---|---|
| 1777061340 | 12.22° C | 56% | 1020 hPa | - | - | - | - |
| 1777060440 | 12.78° C | 54% | 1019.8 hPa | - | - | - | - |
| 1777059540 | 12.78° C | 54% | 1019.9 hPa | - | - | - | - |
| 1777058640 | 13.33° C | 53% | 1019.8 hPa | - | - | - | - |
| 1777057739 | 13.89° C | 52% | 1019.6 hPa | - | - | - | - |
| 1777056839 | 14.44° C | 51% | 1019.6 hPa | - | - | - | - |
| 1777055939 | 15.56° C | 49% | 1019.5 hPa | - | - | - | - |
| 1777055039 | 16.67° C | 43% | 1019.5 hPa | - | - | - | - |
| 1777054139 | 18.89° C | 38% | 1019.4 hPa | - | - | - | - |
| 1777053239 | 20° C | 33% | 1019.1 hPa | - | - | - | - |
| 1777052339 | 21.11° C | 28% | 1019.2 hPa | - | - | - | - |
| 1777051439 | 21.67° C | 28% | 1019.1 hPa | - | - | - | - |
| 1777050539 | 21.67° C | 27% | 1019 hPa | - | - | - | - |
| 1777049639 | 22.22° C | 26% | 1019.1 hPa | - | - | - | - |
| 1777048739 | 22.78° C | 28% | 1019.3 hPa | - | - | - | - |
| 1777047839 | 22.78° C | 27% | 1019.4 hPa | - | - | - | - |
| 1777046939 | 23.33° C | 28% | 1019.5 hPa | - | - | - | - |
| 1777046038 | 23.89° C | 28% | 1019.6 hPa | - | - | - | - |
| 1777045138 | 23.89° C | 29% | 1019.7 hPa | - | - | - | - |
| 1777044238 | 23.89° C | 29% | 1019.8 hPa | - | - | - | - |
| 1777043338 | 23.89° C | 30% | 1020 hPa | - | - | - | - |
| 1777042437 | 25° C | 26% | 1019.9 hPa | - | - | - | - |
| 1777041537 | 25° C | 27% | 1020.1 hPa | - | - | - | - |
| 1777040637 | 25° C | 27% | 1020.2 hPa | - | - | - | - |
| 1777039737 | 25° C | 26% | 1020.4 hPa | - | - | - | - |
* Rain since midnight (hover to see other rain measurements)
** Current wind speed in m/s (hover to see current wind gust speed)